Time;durP1;ratioP1;P1;durP2;ratioP2;P2;SDS_P1;SDS_P2;PMS_P1;PMS_P2;Temp;Humidity;BMP_temperature;BMP_pressure;BME280_temperature;BME280_humidity;BME280_pressure;Samples;Min_cycle;Max_cycle;Signal;HPM_P1;HPM_P2
2022/08/27 00:00:24;;;;;;;3.15;2.63;;;15.70;59.40;;;;;;5031336;28;20251;-37
2022/08/27 00:02:55;;;;;;;2.35;2.13;;;15.80;59.50;;;;;;5032918;28;20219;-50
2022/08/27 00:05:26;;;;;;;3.13;2.38;;;15.80;59.50;;;;;;5032073;28;20207;-38
2022/08/27 00:07:56;;;;;;;3.28;2.58;;;15.80;59.50;;;;;;5031484;28;20195;-42
2022/08/27 00:10:30;;;;;;;4.40;3.30;;;15.80;59.60;;;;;;5030672;28;20223;-39
2022/08/27 00:13:00;;;;;;;3.33;2.65;;;15.90;59.60;;;;;;5031445;28;20200;-38
2022/08/27 00:15:32;;;;;;;3.63;2.83;;;15.90;59.60;;;;;;5031473;28;20196;-38
2022/08/27 00:18:03;;;;;;;2.55;2.35;;;15.90;59.60;;;;;;5030445;28;20707;-42
2022/08/27 00:20:33;;;;;;;3.60;2.78;;;15.90;59.60;;;;;;5031267;28;20691;-45
2022/08/27 00:23:04;;;;;;;3.17;2.63;;;16.00;59.60;;;;;;5031189;28;20197;-35
2022/08/27 00:25:37;;;;;;;3.47;2.55;;;16.00;59.50;;;;;;5031167;28;20203;-38
2022/08/27 00:28:07;;;;;;;3.55;2.65;;;16.00;59.50;;;;;;5031060;28;20563;-45
2022/08/27 00:30:38;;;;;;;4.43;3.00;;;16.00;59.50;;;;;;5030359;28;20208;-44
2022/08/27 00:33:09;;;;;;;3.55;3.20;;;16.10;59.50;;;;;;5030777;28;20193;-38
2022/08/27 00:35:40;;;;;;;3.72;2.72;;;16.10;59.50;;;;;;5030591;28;20652;-35
2022/08/27 00:38:11;;;;;;;2.50;2.30;;;16.20;59.60;;;;;;5030729;28;20224;-35
2022/08/27 00:40:44;;;;;;;3.30;2.90;;;16.20;59.60;;;;;;5030413;28;20549;-35
2022/08/27 00:43:15;;;;;;;2.83;2.55;;;16.20;59.60;;;;;;5031079;28;20250;-34
2022/08/27 00:45:48;;;;;;;2.83;2.60;;;16.20;59.60;;;;;;5030474;28;20610;-36
2022/08/27 00:48:23;;;;;;;3.72;2.65;;;16.30;59.70;;;;;;5030854;28;20203;-35
2022/08/27 00:50:55;;;;;;;3.28;2.95;;;16.30;59.70;;;;;;5030938;28;20254;-37
2022/08/27 00:53:31;;;;;;;3.20;2.78;;;16.30;59.70;;;;;;5031114;28;20648;-35
2022/08/27 00:56:08;;;;;;;3.30;3.00;;;16.30;59.60;;;;;;5030681;28;20227;-33
2022/08/27 00:58:41;;;;;;;3.17;2.50;;;16.40;59.60;;;;;;5030816;28;20222;-35
2022/08/27 01:01:17;;;;;;;3.17;2.80;;;16.40;59.50;;;;;;5029900;28;20227;-35
2022/08/27 01:03:49;;;;;;;3.15;2.80;;;16.40;59.50;;;;;;5030883;28;20199;-35
2022/08/27 01:06:23;;;;;;;3.22;2.80;;;16.50;59.60;;;;;;5030784;28;20223;-37
2022/08/27 01:08:58;;;;;;;3.80;3.28;;;16.40;59.60;;;;;;5030066;28;20203;-41
2022/08/27 01:11:30;;;;;;;3.40;3.05;;;16.50;59.60;;;;;;5030922;28;20227;-39
2022/08/27 01:14:01;;;;;;;4.32;2.95;;;16.50;59.60;;;;;;5030621;28;20199;-35
2022/08/27 01:16:36;;;;;;;3.30;3.00;;;16.50;59.60;;;;;;5031243;28;20704;-35
2022/08/27 01:19:11;;;;;;;4.45;3.10;;;16.50;59.60;;;;;;5029844;28;20596;-39
2022/08/27 01:21:46;;;;;;;3.30;3.00;;;16.60;59.60;;;;;;5031000;28;20702;-35
2022/08/27 01:24:35;;;;;;;3.72;3.25;;;16.60;59.60;;;;;;5010952;28;20196;-35
2022/08/27 01:27:09;;;;;;;4.03;3.42;;;16.60;59.50;;;;;;5013465;28;20658;-36
2022/08/27 01:29:40;;;;;;;3.90;2.92;;;16.70;59.50;;;;;;5030528;28;20251;-35
2022/08/27 01:32:13;;;;;;;4.18;3.28;;;16.70;59.40;;;;;;5029638;28;20192;-35
2022/08/27 01:34:44;;;;;;;3.92;3.30;;;16.70;59.40;;;;;;5030238;28;20675;-35
2022/08/27 01:37:16;;;;;;;4.90;3.38;;;16.70;59.40;;;;;;5029660;28;20565;-35
2022/08/27 01:39:49;;;;;;;3.72;3.00;;;16.80;59.50;;;;;;5030556;28;20227;-35
2022/08/27 01:42:24;;;;;;;3.38;2.95;;;16.80;59.40;;;;;;5029958;28;20197;-35
2022/08/27 01:44:57;;;;;;;3.63;3.08;;;16.80;59.40;;;;;;5030481;28;20203;-35
2022/08/27 01:47:29;;;;;;;4.25;3.47;;;16.80;59.30;;;;;;5033462;28;20211;-36
2022/08/27 01:50:00;;;;;;;3.58;3.25;;;16.80;59.40;;;;;;5034585;28;20215;-35
2022/08/27 01:52:32;;;;;;;3.40;3.00;;;16.80;59.30;;;;;;5033907;28;20193;-39
2022/08/27 01:55:06;;;;;;;3.42;2.90;;;16.90;60.00;;;;;;5034846;28;20215;-35
2022/08/27 01:57:36;;;;;;;3.70;3.15;;;16.90;59.30;;;;;;5034127;28;20707;-35
2022/08/27 02:00:10;;;;;;;3.20;2.83;;;16.90;59.80;;;;;;5034380;28;20216;-34
2022/08/27 02:02:41;;;;;;;3.33;3.00;;;16.90;59.20;;;;;;5034463;28;20198;-37
2022/08/27 02:05:15;;;;;;;3.80;3.22;;;17.00;59.20;;;;;;5033525;28;20196;-41
2022/08/27 02:07:46;;;;;;;4.03;3.03;;;17.00;59.20;;;;;;5033688;28;20204;-42
2022/08/27 02:10:21;;;;;;;3.78;3.13;;;17.00;59.20;;;;;;5039065;28;20216;-34
2022/08/27 02:12:52;;;;;;;3.67;2.67;;;17.00;59.20;;;;;;5054024;28;20209;-35
2022/08/27 02:15:23;;;;;;;2.90;2.63;;;17.10;59.20;;;;;;5053364;28;20200;-35
2022/08/27 02:17:54;;;;;;;3.08;2.78;;;17.10;59.20;;;;;;5036968;28;20231;-35
2022/08/27 02:20:25;;;;;;;4.72;3.35;;;17.10;59.10;;;;;;5032768;28;20834;-34
2022/08/27 02:22:56;;;;;;;2.83;2.63;;;17.10;59.10;;;;;;5032842;28;20211;-35
2022/08/27 02:25:29;;;;;;;3.63;2.75;;;17.10;59.10;;;;;;5032130;28;20199;-37
2022/08/27 02:28:01;;;;;;;5.22;3.22;;;17.10;59.00;;;;;;5032252;28;20203;-35
2022/08/27 02:30:33;;;;;;;3.50;3.13;;;17.20;59.00;;;;;;5032577;28;20220;-35
2022/08/27 02:33:04;;;;;;;2.83;2.63;;;17.20;59.00;;;;;;5032370;28;20557;-35
2022/08/27 02:35:37;;;;;;;5.60;3.28;;;17.20;58.90;;;;;;5012969;28;20223;-35
2022/08/27 02:38:09;;;;;;;3.15;2.85;;;17.20;58.90;;;;;;5012726;28;20225;-35
2022/08/27 02:40:42;;;;;;;3.50;3.17;;;17.30;58.90;;;;;;5014099;28;20717;-35
2022/08/27 02:43:12;;;;;;;4.03;3.28;;;17.30;58.90;;;;;;5032067;28;20675;-34
2022/08/27 02:45:43;;;;;;;3.60;2.90;;;17.30;58.90;;;;;;5032176;28;20196;-36
2022/08/27 02:48:14;;;;;;;5.22;3.45;;;17.30;58.90;;;;;;5032117;28;20196;-37
2022/08/27 02:50:45;;;;;;;3.03;2.72;;;17.30;58.70;;;;;;5031861;28;20708;-35
2022/08/27 02:53:16;;;;;;;3.78;3.13;;;17.40;58.70;;;;;;5032102;28;20219;-34
2022/08/27 02:55:51;;;;;;;3.05;2.80;;;17.40;58.60;;;;;;5031733;28;20199;-35
2022/08/27 02:58:21;;;;;;;4.22;2.92;;;17.40;58.70;;;;;;5031205;28;20277;-35
2022/08/27 03:00:52;;;;;;;3.17;2.90;;;17.40;58.60;;;;;;5031656;28;20853;-35
2022/08/27 03:03:23;;;;;;;3.40;2.70;;;17.50;58.60;;;;;;5031574;28;20202;-35
2022/08/27 03:05:54;;;;;;;2.95;2.65;;;17.50;58.50;;;;;;5032078;28;20569;-35
2022/08/27 03:08:25;;;;;;;5.05;3.45;;;17.50;58.50;;;;;;5031628;28;20197;-36
2022/08/27 03:10:58;;;;;;;3.20;2.97;;;17.50;58.50;;;;;;5031759;28;20282;-39
2022/08/27 03:13:29;;;;;;;3.47;3.17;;;17.60;58.40;;;;;;5031485;28;20192;-35
2022/08/27 03:16:00;;;;;;;3.85;2.97;;;17.60;58.30;;;;;;5031259;28;20192;-35
2022/08/27 03:18:29;;;;;;;3.40;3.10;;;17.60;58.20;;;;;;5031281;28;20629;-37
2022/08/27 03:21:00;;;;;;;3.20;2.90;;;17.60;58.20;;;;;;5031432;28;20255;-35
2022/08/27 03:23:33;;;;;;;3.65;3.35;;;17.60;58.20;;;;;;5031672;28;20611;-37
2022/08/27 03:26:11;;;;;;;3.83;3.53;;;17.70;58.10;;;;;;5031427;28;20197;-36
2022/08/27 03:28:42;;;;;;;4.03;3.00;;;17.70;58.10;;;;;;5031402;28;20200;-35
2022/08/27 03:31:25;;;;;;;3.88;3.20;;;17.70;58.20;;;;;;5031581;28;20224;-36
2022/08/27 03:33:56;;;;;;;3.72;3.10;;;17.70;58.10;;;;;;5031258;28;20786;-38
2022/08/27 03:36:28;;;;;;;3.38;3.08;;;17.70;58.10;;;;;;5031109;28;20197;-36
2022/08/27 03:38:59;;;;;;;3.00;2.67;;;17.80;58.10;;;;;;5030911;28;20754;-35
2022/08/27 03:41:32;;;;;;;3.92;3.53;;;17.80;58.10;;;;;;5030720;28;20579;-37
2022/08/27 03:44:02;;;;;;;4.53;3.15;;;17.80;58.00;;;;;;5031126;28;20204;-35
2022/08/27 03:46:33;;;;;;;4.95;3.30;;;17.80;57.90;;;;;;5031411;28;20218;-35
2022/08/27 03:49:04;;;;;;;4.30;3.60;;;17.80;57.80;;;;;;5031093;28;20203;-35
2022/08/27 03:51:34;;;;;;;4.78;3.70;;;17.90;57.80;;;;;;5030619;28;20626;-34
2022/08/27 03:54:05;;;;;;;3.42;3.10;;;17.90;57.80;;;;;;5031085;28;20192;-41
2022/08/27 03:56:40;;;;;;;4.38;3.40;;;17.90;57.60;;;;;;5030897;28;20200;-35
2022/08/27 03:59:11;;;;;;;3.85;3.22;;;17.90;57.60;;;;;;5030890;28;20231;-37
2022/08/27 04:01:41;;;;;;;3.92;3.20;;;17.90;57.60;;;;;;5030937;28;20220;-38
2022/08/27 04:04:12;;;;;;;4.57;3.58;;;17.90;57.50;;;;;;5030816;28;20196;-34
2022/08/27 04:06:43;;;;;;;3.70;3.40;;;17.90;57.50;;;;;;5031420;28;20289;-36
2022/08/27 04:09:14;;;;;;;3.70;3.22;;;17.90;57.40;;;;;;5030054;28;20200;-36
2022/08/27 04:11:46;;;;;;;3.67;3.33;;;18.00;57.40;;;;;;5030285;28;20220;-38
2022/08/27 04:14:17;;;;;;;4.00;3.30;;;18.00;57.30;;;;;;5029893;28;20532;-36
2022/08/27 04:16:48;;;;;;;3.28;2.97;;;18.00;57.30;;;;;;5030492;28;20211;-35
2022/08/27 04:19:18;;;;;;;3.75;3.35;;;18.00;57.30;;;;;;5030575;28;20232;-35
2022/08/27 04:21:49;;;;;;;4.40;2.97;;;18.00;57.30;;;;;;5030483;28;20224;-35
2022/08/27 04:24:20;;;;;;;3.90;3.50;;;18.00;57.30;;;;;;5030461;28;20201;-35
2022/08/27 04:26:53;;;;;;;3.88;3.53;;;18.10;57.20;;;;;;5029787;28;20196;-34
2022/08/27 04:29:23;;;;;;;4.55;3.97;;;18.10;57.20;;;;;;5029796;28;20195;-36
2022/08/27 04:31:54;;;;;;;3.83;3.42;;;18.10;57.40;;;;;;5029884;28;20216;-35
2022/08/27 04:34:25;;;;;;;3.20;2.90;;;18.00;57.20;;;;;;5028601;28;20203;-37
2022/08/27 04:36:58;;;;;;;3.72;3.40;;;18.10;57.40;;;;;;5023341;28;20196;-38
2022/08/27 04:39:29;;;;;;;4.45;3.10;;;18.10;57.40;;;;;;5031041;28;20216;-35
2022/08/27 04:42:03;;;;;;;3.83;3.40;;;18.10;57.20;;;;;;5010758;28;20200;-40
2022/08/27 04:44:35;;;;;;;3.53;3.22;;;18.10;57.10;;;;;;5022517;28;20654;-34
2022/08/27 04:47:07;;;;;;;3.70;3.28;;;18.10;57.10;;;;;;5044044;28;20206;-36
2022/08/27 04:49:38;;;;;;;3.65;3.35;;;18.10;57.00;;;;;;5040386;28;20204;-35
2022/08/27 04:52:09;;;;;;;3.30;3.00;;;18.10;57.10;;;;;;5031041;28;20215;-36
2022/08/27 04:54:40;;;;;;;3.58;3.28;;;18.10;57.10;;;;;;5030892;28;20196;-35
2022/08/27 04:57:13;;;;;;;4.07;3.55;;;18.10;57.00;;;;;;5031444;28;20203;-37
2022/08/27 04:59:43;;;;;;;3.70;3.40;;;18.10;57.00;;;;;;5030102;28;20734;-38
2022/08/27 05:02:15;;;;;;;3.65;2.88;;;18.10;57.00;;;;;;5031346;28;20192;-36
2022/08/27 05:04:46;;;;;;;3.42;3.13;;;18.10;56.90;;;;;;5041581;28;20199;-36
2022/08/27 05:07:17;;;;;;;3.33;2.80;;;18.10;57.00;;;;;;5050896;28;20201;-40
2022/08/27 05:09:47;;;;;;;3.10;2.80;;;18.10;57.00;;;;;;5049956;28;20195;-38
2022/08/27 05:12:20;;;;;;;4.38;2.67;;;18.10;57.00;;;;;;5050309;28;20282;-38
2022/08/27 05:14:51;;;;;;;3.28;2.20;;;18.10;56.50;;;;;;5049626;28;20254;-37
2022/08/27 05:17:22;;;;;;;3.05;2.10;;;18.10;55.60;;;;;;5039122;28;20227;-36
2022/08/27 05:19:52;;;;;;;4.00;2.33;;;18.10;55.10;;;;;;5031379;28;20436;-40
2022/08/27 05:22:23;;;;;;;2.72;2.47;;;18.00;54.70;;;;;;5034077;28;20211;-36
2022/08/27 05:24:54;;;;;;;3.63;2.80;;;17.90;54.40;;;;;;5034304;28;20667;-36
2022/08/27 05:27:27;;;;;;;5.07;4.38;;;17.90;54.30;;;;;;5033303;28;20207;-39
2022/08/27 05:29:57;;;;;;;8.10;7.30;;;17.80;54.10;;;;;;5034731;28;20231;-36
2022/08/27 05:32:28;;;;;;;6.93;6.18;;;17.80;54.10;;;;;;5034377;28;20196;-36
2022/08/27 05:34:59;;;;;;;6.65;4.72;;;17.70;54.00;;;;;;5034377;28;20196;-37
2022/08/27 05:37:29;;;;;;;5.57;4.70;;;17.60;53.90;;;;;;5034478;28;20192;-38
2022/08/27 05:40:00;;;;;;;5.85;5.22;;;17.60;53.80;;;;;;5034021;28;20223;-40
2022/08/27 05:42:35;;;;;;;7.80;6.28;;;17.50;53.80;;;;;;5034881;28;20200;-36
2022/08/27 05:45:05;;;;;;;6.70;5.90;;;17.50;53.70;;;;;;5045739;28;20198;-36
2022/08/27 05:47:36;;;;;;;6.07;4.90;;;17.40;53.70;;;;;;5033851;28;20200;-36
2022/08/27 05:50:07;;;;;;;5.32;4.15;;;17.40;53.60;;;;;;5034485;28;20227;-41
2022/08/27 05:52:40;;;;;;;2.92;2.58;;;17.30;53.50;;;;;;5034374;28;20207;-36
2022/08/27 05:55:11;;;;;;;5.03;2.90;;;17.30;53.60;;;;;;5034885;28;20200;-36
2022/08/27 05:57:44;;;;;;;4.53;2.67;;;17.20;53.60;;;;;;5033963;28;20203;-36
2022/08/27 06:03:02;;;;;;;4.75;4.30;;;17.00;53.60;;;;;;5034110;28;20219;-36
2022/08/27 06:05:33;;;;;;;11.55;10.35;;;17.00;53.70;;;;;;5034412;28;20199;-36
2022/08/27 06:08:03;;;;;;;5.28;4.78;;;16.90;53.70;;;;;;5034094;28;20204;-35
2022/08/27 06:10:35;;;;;;;6.68;6.07;;;16.80;55.10;;;;;;5033626;28;20216;-34
2022/08/27 06:13:07;;;;;;;6.45;5.85;;;16.80;55.80;;;;;;5033836;28;20660;-35
2022/08/27 06:15:38;;;;;;;6.40;5.70;;;16.80;55.90;;;;;;5034451;28;20195;-35
2022/08/27 06:18:09;;;;;;;7.32;5.93;;;16.80;56.10;;;;;;5033889;28;20188;-36
2022/08/27 06:20:42;;;;;;;7.05;6.35;;;16.80;56.10;;;;;;5033491;28;20236;-34
2022/08/27 06:23:12;;;;;;;7.72;6.93;;;16.80;56.10;;;;;;5032708;28;20200;-34
2022/08/27 06:25:44;;;;;;;8.25;6.43;;;16.80;56.00;;;;;;5032448;28;20196;-37
2022/08/27 06:28:16;;;;;;;10.00;7.60;;;16.80;56.50;;;;;;5032333;28;20192;-35
2022/08/27 06:30:47;;;;;;;9.65;7.65;;;16.80;56.00;;;;;;5032060;28;20243;-34
2022/08/27 06:33:20;;;;;;;7.78;7.00;;;16.80;56.10;;;;;;5031409;28;20189;-35
2022/08/27 06:35:50;;;;;;;9.18;7.03;;;16.80;56.00;;;;;;5032043;28;20833;-34
2022/08/27 06:38:21;;;;;;;8.85;7.95;;;16.90;56.10;;;;;;5032123;28;20204;-36
2022/08/27 06:40:52;;;;;;;8.10;7.30;;;16.90;56.10;;;;;;5031852;28;20220;-35
2022/08/27 06:43:25;;;;;;;8.48;7.47;;;16.90;56.00;;;;;;5032024;28;20283;-35
2022/08/27 06:45:55;;;;;;;8.20;7.40;;;16.90;56.00;;;;;;5032299;28;20207;-34
2022/08/27 06:48:26;;;;;;;8.20;7.47;;;16.90;56.00;;;;;;5031879;28;20204;-34
2022/08/27 06:50:57;;;;;;;8.35;7.55;;;16.90;56.00;;;;;;5032106;28;20219;-34
2022/08/27 06:53:28;;;;;;;8.95;8.05;;;16.90;56.00;;;;;;5032097;28;20200;-35
2022/08/27 06:55:59;;;;;;;8.65;7.85;;;16.90;56.00;;;;;;5031645;28;20562;-34
2022/08/27 06:58:33;;;;;;;8.18;7.40;;;16.90;55.90;;;;;;5031622;28;20207;-34
2022/08/27 07:01:04;;;;;;;8.63;7.80;;;16.90;55.90;;;;;;5031802;28;20220;-34
2022/08/27 07:03:35;;;;;;;8.80;7.93;;;16.90;55.90;;;;;;5031489;28;20202;-34
2022/08/27 07:06:08;;;;;;;8.40;7.60;;;16.90;56.60;;;;;;5032236;28;20211;-34
2022/08/27 07:08:39;;;;;;;7.72;7.03;;;16.90;56.00;;;;;;5031818;28;20203;-34
2022/08/27 07:11:10;;;;;;;8.02;7.22;;;16.90;56.00;;;;;;5031847;28;20258;-35
2022/08/27 07:13:44;;;;;;;8.23;7.53;;;16.80;55.90;;;;;;5031100;28;20258;-35
2022/08/27 07:16:16;;;;;;;8.30;7.40;;;16.80;55.90;;;;;;5031850;28;20200;-35
2022/08/27 07:18:47;;;;;;;8.55;7.75;;;16.80;55.90;;;;;;5031253;28;20208;-35
2022/08/27 07:21:19;;;;;;;8.73;7.28;;;16.80;55.90;;;;;;5031554;28;20220;-34
2022/08/27 07:23:50;;;;;;;8.95;6.82;;;16.80;56.00;;;;;;5031471;28;20281;-35
2022/08/27 07:26:23;;;;;;;7.82;6.90;;;16.80;56.00;;;;;;5031497;28;20674;-34
2022/08/27 07:28:55;;;;;;;7.63;6.90;;;16.80;56.10;;;;;;5031178;28;20203;-35
2022/08/27 07:31:28;;;;;;;7.93;7.22;;;16.80;56.00;;;;;;5031327;28;20224;-37
2022/08/27 07:33:59;;;;;;;8.20;7.40;;;16.80;56.00;;;;;;5031150;28;20576;-37
2022/08/27 07:36:29;;;;;;;8.27;7.47;;;16.80;56.10;;;;;;5031217;28;20203;-36
2022/08/27 07:39:00;;;;;;;7.43;6.72;;;16.80;56.10;;;;;;5031152;28;20192;-37
2022/08/27 07:44:23;;;;;;;7.97;7.13;;;16.80;56.10;;;;;;5031213;28;20212;-35
2022/08/27 07:44:26;;;;;;;7.50;6.88;;;16.80;56.10;;;;;;5030818;28;20208;-35
2022/08/27 07:46:58;;;;;;;7.75;7.05;;;16.70;56.10;;;;;;5031043;28;20216;-34
2022/08/27 07:49:33;;;;;;;8.20;6.63;;;16.70;56.00;;;;;;5030909;28;20253;-34
2022/08/27 07:52:05;;;;;;;7.60;6.75;;;16.70;56.10;;;;;;5030643;28;20286;-34
2022/08/27 07:54:35;;;;;;;8.32;7.53;;;16.70;56.10;;;;;;5031333;28;20200;-35
2022/08/27 07:57:06;;;;;;;7.68;7.00;;;16.70;56.20;;;;;;5031167;28;20288;-38
2022/08/27 07:59:39;;;;;;;7.32;6.63;;;16.70;56.20;;;;;;5030834;28;20228;-35
2022/08/27 08:02:11;;;;;;;7.13;6.47;;;16.70;56.20;;;;;;5030735;28;20192;-35
2022/08/27 08:04:42;;;;;;;6.95;6.35;;;16.70;56.20;;;;;;5030074;28;20200;-36
2022/08/27 08:07:13;;;;;;;7.75;7.05;;;16.70;56.30;;;;;;5031488;28;20196;-38
2022/08/27 08:09:43;;;;;;;7.50;6.78;;;16.70;56.30;;;;;;5030464;28;20203;-35
2022/08/27 08:12:14;;;;;;;7.43;6.72;;;16.60;56.30;;;;;;5030810;28;20200;-39
2022/08/27 08:14:47;;;;;;;7.60;6.90;;;16.60;56.30;;;;;;5030333;28;20204;-36
2022/08/27 08:17:18;;;;;;;6.82;6.22;;;16.70;56.30;;;;;;5030192;28;20291;-34
2022/08/27 08:19:49;;;;;;;6.88;6.22;;;16.60;56.30;;;;;;5030069;28;20223;-34
2022/08/27 08:22:20;;;;;;;6.72;6.10;;;16.60;56.20;;;;;;5030763;28;20219;-34
2022/08/27 08:24:50;;;;;;;6.95;6.25;;;16.60;56.30;;;;;;5030589;28;20196;-34
2022/08/27 08:27:21;;;;;;;6.70;6.10;;;16.60;56.30;;;;;;5030595;28;20193;-35
2022/08/27 08:29:54;;;;;;;7.47;6.45;;;16.60;56.40;;;;;;5029470;28;20663;-34
2022/08/27 08:32:25;;;;;;;7.57;6.78;;;16.60;56.40;;;;;;5030241;28;20211;-35
2022/08/27 08:34:55;;;;;;;7.38;6.65;;;16.60;56.40;;;;;;5029849;28;20200;-35
2022/08/27 08:37:26;;;;;;;5.97;5.47;;;16.60;56.50;;;;;;5030637;28;20659;-38
2022/08/27 08:39:57;;;;;;;6.65;6.05;;;16.60;56.50;;;;;;5030340;28;20627;-36
2022/08/27 08:42:35;;;;;;;6.78;6.18;;;16.60;56.50;;;;;;5030833;28;20223;-34
2022/08/27 08:45:10;;;;;;;6.60;6.00;;;16.60;56.50;;;;;;5029784;28;20204;-36
2022/08/27 08:47:44;;;;;;;6.38;5.82;;;16.50;56.40;;;;;;5029866;28;20237;-35
2022/08/27 08:50:19;;;;;;;6.68;6.07;;;16.50;56.40;;;;;;5010148;28;20215;-40
2022/08/27 08:52:59;;;;;;;6.70;6.15;;;16.50;56.40;;;;;;5010535;28;20624;-34
2022/08/27 08:55:42;;;;;;;6.68;6.07;;;16.50;56.40;;;;;;5009810;28;20223;-35
2022/08/27 08:58:18;;;;;;;6.80;6.20;;;16.50;56.40;;;;;;5009948;28;20232;-34
2022/08/27 09:00:55;;;;;;;6.93;6.13;;;16.50;56.50;;;;;;5010425;28;20235;-34
2022/08/27 09:03:26;;;;;;;6.40;5.68;;;16.50;56.50;;;;;;5014696;28;20674;-35
2022/08/27 09:06:01;;;;;;;6.68;6.07;;;16.50;56.60;;;;;;5030604;28;20208;-37
2022/08/27 09:08:35;;;;;;;6.28;5.68;;;16.50;56.70;;;;;;5030141;28;20542;-35
2022/08/27 09:11:11;;;;;;;6.50;5.90;;;16.50;56.70;;;;;;5030135;28;20219;-38
2022/08/27 09:13:49;;;;;;;6.35;5.82;;;16.50;56.70;;;;;;5029986;28;20200;-34
2022/08/27 09:16:21;;;;;;;6.90;6.20;;;16.50;56.70;;;;;;5029192;28;20203;-35
2022/08/27 09:18:52;;;;;;;5.85;5.35;;;16.40;56.60;;;;;;5029401;28;20663;-34
2022/08/27 09:21:33;;;;;;;5.78;5.28;;;16.40;56.60;;;;;;5029744;28;20231;-34
2022/08/27 09:24:13;;;;;;;6.13;5.53;;;16.50;56.70;;;;;;5029604;28;20195;-35
2022/08/27 09:26:45;;;;;;;6.25;5.65;;;16.40;56.60;;;;;;5029939;28;20207;-34
2022/08/27 09:29:18;;;;;;;6.90;6.20;;;16.50;56.60;;;;;;5029450;28;20188;-35
2022/08/27 09:31:57;;;;;;;6.32;5.72;;;16.40;56.60;;;;;;5029325;28;20282;-34
2022/08/27 09:34:29;;;;;;;6.30;5.68;;;16.40;56.90;;;;;;5029444;28;20211;-35
2022/08/27 09:37:08;;;;;;;5.80;5.30;;;16.40;57.10;;;;;;5029757;28;20192;-36
2022/08/27 09:39:48;;;;;;;6.40;5.90;;;16.40;57.00;;;;;;5029553;28;20663;-35
2022/08/27 09:42:32;;;;;;;6.18;5.57;;;16.40;57.00;;;;;;5030387;28;20199;-42
2022/08/27 09:45:03;;;;;;;5.80;5.30;;;16.40;57.00;;;;;;5024214;28;20195;-35
2022/08/27 09:47:46;;;;;;;5.88;5.25;;;16.40;57.10;;;;;;5029001;28;20719;-35
2022/08/27 09:50:19;;;;;;;6.30;5.70;;;16.40;57.10;;;;;;5027481;28;20223;-37
2022/08/27 09:52:54;;;;;;;5.60;5.05;;;16.40;57.10;;;;;;5029313;28;20200;-39
2022/08/27 09:55:39;;;;;;;6.03;5.53;;;16.40;57.20;;;;;;5030599;28;20640;-34
2022/08/27 09:58:17;;;;;;;5.78;5.28;;;16.40;57.10;;;;;;5030000;28;20211;-35
2022/08/27 10:00:49;;;;;;;6.50;5.90;;;16.40;57.20;;;;;;5035694;28;20631;-35
2022/08/27 10:03:23;;;;;;;5.50;5.00;;;16.40;57.20;;;;;;5029574;28;20230;-36
2022/08/27 10:05:54;;;;;;;5.53;5.03;;;16.40;57.20;;;;;;5030596;28;20188;-35
2022/08/27 10:08:29;;;;;;;6.18;5.60;;;16.40;57.20;;;;;;5033716;28;20215;-34
2022/08/27 10:11:02;;;;;;;6.57;5.85;;;16.40;57.20;;;;;;5033340;28;20207;-35
2022/08/27 10:13:39;;;;;;;5.68;5.18;;;16.30;57.20;;;;;;5033454;28;20279;-36
2022/08/27 10:16:35;;;;;;;5.10;4.60;;;16.30;57.30;;;;;;5033182;28;20203;-38
2022/08/27 10:19:19;;;;;;;5.78;5.28;;;16.40;57.30;;;;;;5033613;28;20200;-35
2022/08/27 10:21:53;;;;;;;5.65;5.15;;;16.30;57.20;;;;;;5033347;28;20232;-34
2022/08/27 10:24:34;;;;;;;5.38;4.88;;;16.30;57.30;;;;;;5033263;28;20199;-35
2022/08/27 10:27:12;;;;;;;5.35;4.95;;;16.30;57.30;;;;;;5032144;28;20331;-41
2022/08/27 10:29:50;;;;;;;5.53;5.00;;;16.30;57.20;;;;;;5028806;28;20192;-39
2022/08/27 10:32:37;;;;;;;5.20;4.70;;;16.30;57.20;;;;;;5030080;28;20660;-35
2022/08/27 10:35:17;;;;;;;6.00;5.10;;;16.30;57.30;;;;;;5033669;28;20195;-35
2022/08/27 10:37:58;;;;;;;5.18;4.68;;;16.30;57.30;;;;;;5032141;28;20638;-39
2022/08/27 10:40:33;;;;;;;5.55;5.05;;;16.30;57.40;;;;;;5032943;28;20220;-34
2022/08/27 10:43:18;;;;;;;5.55;4.93;;;16.30;57.40;;;;;;5033064;28;20287;-35
2022/08/27 10:45:54;;;;;;;5.03;4.57;;;16.30;57.40;;;;;;5032352;28;20635;-37
2022/08/27 10:48:29;;;;;;;5.55;5.05;;;16.30;57.40;;;;;;5047525;28;20192;-36
2022/08/27 10:51:11;;;;;;;5.13;4.72;;;16.30;57.40;;;;;;5053804;28;20227;-36
2022/08/27 10:53:47;;;;;;;5.18;4.78;;;16.20;57.30;;;;;;5052088;28;20283;-36
2022/08/27 10:56:23;;;;;;;4.63;4.22;;;16.30;57.40;;;;;;5051318;28;20202;-41
2022/08/27 10:59:08;;;;;;;5.13;4.65;;;16.30;57.40;;;;;;5051665;28;20191;-35
2022/08/27 11:01:47;;;;;;;4.88;4.47;;;16.20;57.30;;;;;;5051806;28;20252;-34
2022/08/27 11:04:23;;;;;;;5.32;4.82;;;16.20;57.30;;;;;;5036601;28;20258;-35
2022/08/27 11:07:00;;;;;;;5.50;5.00;;;16.20;57.30;;;;;;5032485;28;20282;-34
2022/08/27 11:09:38;;;;;;;5.30;4.80;;;16.20;57.40;;;;;;5031858;28;20199;-38
2022/08/27 11:12:12;;;;;;;5.00;4.50;;;16.20;57.40;;;;;;5031593;28;20204;-37
2022/08/27 11:14:49;;;;;;;6.85;4.80;;;16.20;57.40;;;;;;5031458;28;20235;-35
2022/08/27 11:17:26;;;;;;;5.03;4.53;;;16.20;57.50;;;;;;5031119;28;20203;-36
2022/08/27 11:20:03;;;;;;;4.90;4.50;;;16.20;57.50;;;;;;5031211;28;20230;-40
2022/08/27 11:22:40;;;;;;;5.32;4.85;;;16.20;57.50;;;;;;5031928;28;20636;-34
2022/08/27 11:25:28;;;;;;;5.30;4.80;;;16.10;57.40;;;;;;5031748;28;20196;-34
2022/08/27 11:28:01;;;;;;;5.25;4.75;;;16.20;57.40;;;;;;5031562;28;20246;-34
2022/08/27 11:30:38;;;;;;;5.22;4.72;;;16.20;57.40;;;;;;5031231;28;20220;-37
2022/08/27 11:33:16;;;;;;;4.82;4.43;;;16.20;57.40;;;;;;5031298;28;20199;-35
2022/08/27 11:36:05;;;;;;;5.50;5.00;;;16.10;57.40;;;;;;5031154;28;20196;-34
2022/08/27 11:38:46;;;;;;;4.65;4.25;;;16.10;57.40;;;;;;5031156;28;20215;-37
2022/08/27 11:41:46;;;;;;;5.25;4.75;;;16.10;57.40;;;;;;5031771;28;20262;-34
2022/08/27 11:44:19;;;;;;;4.32;3.92;;;16.10;57.40;;;;;;5016721;28;20200;-35
2022/08/27 11:46:51;;;;;;;4.82;4.43;;;16.10;57.50;;;;;;5031458;28;20215;-35
2022/08/27 11:49:28;;;;;;;5.20;4.70;;;16.10;57.50;;;;;;5031025;28;20818;-34
2022/08/27 11:52:02;;;;;;;4.68;4.28;;;16.10;57.50;;;;;;5030547;28;20227;-36
2022/08/27 11:54:47;;;;;;;4.93;4.45;;;16.10;57.50;;;;;;5030969;28;20734;-34
2022/08/27 11:57:28;;;;;;;4.60;4.25;;;16.00;57.50;;;;;;5030780;28;20195;-37
2022/08/27 11:59:59;;;;;;;5.70;4.63;;;16.10;57.50;;;;;;5030918;28;20219;-34
2022/08/27 12:02:31;;;;;;;4.43;4.03;;;16.10;57.50;;;;;;5030869;28;20224;-39
2022/08/27 12:05:12;;;;;;;5.25;4.82;;;16.10;57.50;;;;;;5030522;28;20196;-42
2022/08/27 12:07:45;;;;;;;4.45;4.05;;;16.10;57.50;;;;;;5031493;28;20192;-42
2022/08/27 12:10:33;;;;;;;5.47;4.60;;;16.00;57.50;;;;;;5030848;28;20951;-35
2022/08/27 12:13:18;;;;;;;4.53;4.13;;;16.00;57.50;;;;;;5030737;28;20200;-34
2022/08/27 12:16:01;;;;;;;5.15;4.65;;;16.00;57.50;;;;;;5030899;28;20660;-34
2022/08/27 12:18:56;;;;;;;4.65;4.25;;;16.00;57.60;;;;;;5015434;28;20279;-35
2022/08/27 12:21:36;;;;;;;4.90;4.50;;;16.00;57.60;;;;;;5030145;28;20228;-35
2022/08/27 12:24:24;;;;;;;5.05;4.55;;;16.00;57.60;;;;;;5029864;28;20199;-35
2022/08/27 12:27:02;;;;;;;4.20;3.80;;;16.00;57.60;;;;;;5030372;28;20203;-36
2022/08/27 12:29:40;;;;;;;4.78;4.20;;;16.00;57.70;;;;;;5029612;28;20200;-34
2022/08/27 12:32:28;;;;;;;4.40;4.00;;;16.00;57.70;;;;;;5030082;28;20710;-35
2022/08/27 12:35:13;;;;;;;5.25;4.50;;;16.00;57.60;;;;;;5029720;28;20188;-34
2022/08/27 12:37:48;;;;;;;4.15;3.75;;;16.00;57.60;;;;;;5030317;28;20616;-36
2022/08/27 12:40:29;;;;;;;5.00;4.32;;;16.00;57.60;;;;;;5029619;28;20593;-36
2022/08/27 12:43:13;;;;;;;4.40;4.00;;;16.00;57.60;;;;;;5029802;28;20196;-34
2022/08/27 12:45:48;;;;;;;4.30;3.90;;;16.00;57.60;;;;;;5030110;28;20199;-35
2022/08/27 12:48:23;;;;;;;4.22;3.83;;;15.90;57.60;;;;;;5029619;28;20191;-38
2022/08/27 12:51:01;;;;;;;4.80;4.30;;;15.90;57.70;;;;;;5030178;28;20234;-34
2022/08/27 12:53:46;;;;;;;4.85;4.35;;;15.90;57.70;;;;;;5030271;28;20196;-36
2022/08/27 12:56:48;;;;;;;4.07;3.67;;;15.90;57.70;;;;;;5029747;28;20196;-34
2022/08/27 12:59:41;;;;;;;4.18;3.88;;;15.90;57.70;;;;;;5030099;28;20594;-33
2022/08/27 13:02:26;;;;;;;4.53;4.13;;;15.90;57.70;;;;;;5029676;28;20219;-38
2022/08/27 13:04:57;;;;;;;4.07;3.67;;;15.90;57.60;;;;;;5029521;28;20196;-34
2022/08/27 13:07:31;;;;;;;4.25;3.83;;;15.90;57.60;;;;;;5030234;28;20196;-34
2022/08/27 13:10:13;;;;;;;4.32;3.90;;;15.90;57.60;;;;;;5029820;28;20219;-38
2022/08/27 13:12:45;;;;;;;4.35;3.92;;;15.90;57.60;;;;;;5030005;28;20227;-35
2022/08/27 13:15:20;;;;;;;4.53;4.03;;;15.90;57.60;;;;;;5029958;28;20192;-35
2022/08/27 13:17:52;;;;;;;4.22;3.83;;;15.90;57.70;;;;;;5029671;28;20655;-34
2022/08/27 13:20:26;;;;;;;4.40;4.00;;;15.90;57.80;;;;;;5029225;28;20211;-34
2022/08/27 13:22:57;;;;;;;3.90;3.60;;;15.90;57.80;;;;;;5029611;28;20206;-35